createdAt,value
2023-04-15T00:02:14.726Z,10.75
2023-04-15T00:04:41.439Z,10.79
2023-04-15T00:07:08.832Z,10.73
2023-04-15T00:09:35.371Z,10.61
2023-04-15T00:12:02.137Z,10.58
2023-04-15T00:14:28.778Z,10.40
2023-04-15T00:16:57.646Z,10.25
2023-04-15T00:19:25.494Z,10.35
2023-04-15T00:21:52.147Z,10.49
2023-04-15T00:24:20.170Z,10.59
2023-04-15T00:26:47.173Z,10.59
2023-04-15T00:29:14.503Z,10.43
2023-04-15T00:31:42.284Z,10.59
2023-04-15T00:34:08.804Z,10.58
2023-04-15T00:36:35.847Z,10.56
2023-04-15T00:39:03.382Z,10.60
2023-04-15T00:41:29.972Z,10.53
2023-04-15T00:43:56.551Z,10.20
2023-04-15T00:46:23.456Z,10.60
2023-04-15T00:48:51.396Z,10.41
2023-04-15T00:51:18.048Z,10.68
2023-04-15T00:53:44.857Z,10.65
2023-04-15T00:56:11.746Z,10.67
2023-04-15T00:58:38.356Z,10.43
2023-04-15T01:01:05.357Z,10.64
2023-04-15T01:03:32.200Z,10.36
2023-04-15T01:06:02.212Z,10.69
2023-04-15T01:08:31.012Z,10.60
2023-04-15T01:10:59.384Z,10.42
2023-04-15T01:13:26.900Z,10.48
2023-04-15T01:15:53.924Z,10.30
2023-04-15T01:18:21.215Z,10.41
2023-04-15T01:20:47.790Z,10.46
2023-04-15T01:23:14.640Z,10.43
2023-04-15T01:25:42.619Z,10.49
2023-04-15T01:28:10.039Z,10.29
2023-04-15T01:30:36.782Z,10.10
2023-04-15T01:33:03.509Z,10.49
2023-04-15T01:35:30.142Z,10.48
2023-04-15T01:38:05.116Z,10.57
2023-04-15T01:40:31.739Z,10.21
2023-04-15T01:42:58.329Z,10.34
2023-04-15T01:45:24.943Z,10.27
2023-04-15T01:47:51.519Z,10.54
2023-04-15T01:50:18.305Z,10.46
2023-04-15T01:52:44.904Z,10.44
2023-04-15T01:55:11.578Z,10.19
2023-04-15T01:57:38.207Z,10.42
2023-04-15T02:00:05.395Z,10.51
2023-04-15T02:02:32.101Z,10.43
2023-04-15T02:04:59.087Z,10.28
2023-04-15T02:07:26.533Z,10.60
2023-04-15T02:09:53.438Z,10.57
2023-04-15T02:12:20.055Z,10.53
2023-04-15T02:14:47.389Z,10.22
2023-04-15T02:17:13.957Z,10.40
2023-04-15T02:19:41.364Z,10.56
2023-04-15T02:22:09.456Z,10.51
2023-04-15T02:24:36.568Z,10.52
2023-04-15T02:27:03.707Z,10.37
2023-04-15T02:29:32.496Z,10.63
2023-04-15T02:31:59.064Z,10.59
2023-04-15T02:34:27.233Z,10.40
2023-04-15T02:36:57.926Z,10.70
2023-04-15T02:39:24.635Z,10.79
2023-04-15T02:41:54.151Z,10.74
2023-04-15T02:44:21.082Z,10.76
2023-04-15T02:46:52.732Z,10.70
2023-04-15T02:49:19.394Z,10.70
2023-04-15T02:51:49.613Z,10.71
2023-04-15T02:54:17.972Z,10.61
2023-04-15T02:56:44.579Z,10.70
2023-04-15T02:59:13.129Z,10.70
2023-04-15T03:01:39.815Z,10.58
2023-04-15T03:04:08.090Z,10.21
2023-04-15T03:06:35.662Z,10.13
2023-04-15T03:09:02.587Z,10.65
2023-04-15T03:11:30.016Z,10.06
2023-04-15T03:13:56.679Z,10.66
2023-04-15T03:16:23.263Z,10.69
2023-04-15T03:18:49.853Z,10.70
2023-04-15T03:21:16.688Z,10.80
2023-04-15T03:23:43.276Z,9.74
2023-04-15T03:26:09.902Z,10.81
2023-04-15T03:28:36.605Z,10.60
2023-04-15T03:31:03.174Z,10.35
2023-04-15T03:33:29.751Z,10.46
2023-04-15T03:35:56.689Z,10.64
2023-04-15T03:38:23.259Z,10.45
2023-04-15T03:40:49.844Z,10.55
2023-04-15T03:43:16.737Z,10.47
2023-04-15T03:45:43.342Z,10.21
2023-04-15T03:48:17.221Z,10.62
2023-04-15T03:50:44.891Z,10.71
2023-04-15T03:53:11.478Z,10.73
2023-04-15T03:55:38.180Z,9.55
2023-04-15T03:58:04.833Z,10.59
2023-04-15T04:00:31.688Z,10.63
2023-04-15T04:02:58.722Z,10.69
2023-04-15T04:05:26.162Z,10.60
2023-04-15T04:07:52.695Z,10.60
2023-04-15T04:10:19.316Z,10.08
2023-04-15T04:12:46.051Z,10.61
2023-04-15T04:15:12.676Z,10.65
2023-04-15T04:17:39.313Z,10.42
2023-04-15T04:20:06.902Z,10.27
2023-04-15T04:22:40.785Z,10.31
2023-04-15T04:25:08.996Z,10.49
2023-04-15T04:27:36.065Z,10.42
2023-04-15T04:30:02.591Z,10.60
2023-04-15T04:32:29.197Z,10.78
2023-04-15T04:34:56.141Z,10.65
2023-04-15T04:37:23.755Z,10.58
2023-04-15T04:39:50.428Z,10.62
2023-04-15T04:42:17.026Z,10.77
2023-04-15T04:44:43.687Z,10.14
2023-04-15T04:47:10.592Z,10.56
2023-04-15T04:49:37.147Z,10.60
2023-04-15T04:52:04.083Z,10.70
2023-04-15T04:54:31.648Z,10.66
2023-04-15T04:56:58.176Z,10.28
2023-04-15T04:59:25.126Z,10.65
2023-04-15T05:01:52.201Z,10.54
2023-04-15T05:04:18.919Z,10.74
2023-04-15T05:06:45.919Z,10.73
2023-04-15T05:09:12.545Z,10.68
2023-04-15T05:11:39.113Z,10.87
2023-04-15T05:14:05.628Z,10.79
2023-04-15T05:16:32.162Z,10.83
2023-04-15T05:18:58.734Z,10.69
2023-04-15T05:21:26.083Z,10.84
2023-04-15T05:23:52.925Z,10.77
2023-04-15T05:26:19.454Z,10.57
2023-04-15T05:28:46.364Z,10.69
2023-04-15T05:31:13.460Z,10.24
2023-04-15T05:33:40.717Z,10.61
2023-04-15T05:36:07.575Z,10.96
2023-04-15T05:38:34.222Z,11.05
2023-04-15T05:41:01.036Z,10.99
2023-04-15T05:43:27.666Z,10.99
2023-04-15T05:45:54.252Z,10.69
2023-04-15T05:48:21.076Z,10.95
2023-04-15T05:50:47.781Z,11.00
2023-04-15T05:53:14.378Z,11.12
2023-04-15T05:55:41.253Z,10.94
2023-04-15T05:58:07.883Z,11.09
2023-04-15T06:00:34.743Z,11.08
2023-04-15T06:03:01.441Z,11.08
2023-04-15T06:05:28.302Z,11.30
2023-04-15T06:07:55.002Z,11.28
2023-04-15T06:10:21.559Z,11.18
2023-04-15T06:12:48.154Z,10.82
2023-04-15T06:15:15.010Z,11.26
2023-04-15T06:17:41.938Z,11.08
2023-04-15T06:20:08.990Z,11.19
2023-04-15T06:22:37.395Z,11.01
2023-04-15T06:25:04.268Z,11.15
2023-04-15T06:27:31.020Z,11.07
2023-04-15T06:29:57.651Z,10.94
2023-04-15T06:32:24.199Z,11.19
2023-04-15T06:34:50.895Z,11.42
2023-04-15T06:37:17.453Z,11.49
2023-04-15T06:39:44.875Z,11.54
2023-04-15T06:42:12.268Z,11.52
2023-04-15T06:44:39.100Z,11.55
2023-04-15T06:47:06.222Z,11.59
2023-04-15T06:49:33.929Z,11.68
2023-04-15T06:52:00.833Z,11.73
2023-04-15T06:54:27.695Z,11.70
2023-04-15T06:56:54.512Z,11.78
2023-04-15T06:59:21.069Z,11.68
2023-04-15T07:01:47.896Z,11.53
2023-04-15T07:04:14.560Z,11.69
2023-04-15T07:06:42.045Z,11.93
2023-04-15T07:09:08.933Z,11.80
2023-04-15T07:11:35.488Z,11.75
2023-04-15T07:14:02.362Z,11.86
2023-04-15T07:16:30.035Z,11.89
2023-04-15T07:18:57.306Z,11.94
2023-04-15T07:21:24.922Z,11.62
2023-04-15T07:23:52.122Z,11.85
2023-04-15T07:26:18.801Z,11.74
2023-04-15T07:28:46.823Z,11.83
2023-04-15T07:31:14.010Z,11.60
2023-04-15T07:33:43.619Z,11.63
2023-04-15T07:36:10.735Z,12.04
2023-04-15T07:38:37.503Z,11.95
2023-04-15T07:41:05.051Z,12.11
2023-04-15T07:43:31.759Z,11.89
2023-04-15T07:45:58.325Z,12.04
2023-04-15T07:48:24.957Z,11.97
2023-04-15T07:50:51.813Z,11.96
2023-04-15T07:53:18.413Z,12.23
2023-04-15T07:55:44.967Z,11.87
2023-04-15T07:58:11.777Z,12.20
2023-04-15T08:00:38.694Z,12.31
2023-04-15T08:03:05.495Z,12.35
2023-04-15T08:05:32.279Z,12.41
2023-04-15T08:07:59.091Z,12.56
2023-04-15T08:10:25.816Z,12.13
2023-04-15T08:12:54.442Z,12.30
2023-04-15T08:15:21.174Z,12.13
2023-04-15T08:17:48.077Z,11.89
2023-04-15T08:20:14.776Z,12.34
2023-04-15T08:22:42.143Z,11.99
2023-04-15T08:25:09.753Z,12.17
2023-04-15T08:27:36.601Z,12.53
2023-04-15T08:30:05.324Z,12.42
2023-04-15T08:32:32.215Z,12.47
2023-04-15T08:34:58.891Z,12.59
2023-04-15T08:37:25.469Z,12.39
2023-04-15T08:39:52.363Z,12.23
2023-04-15T08:42:27.880Z,12.98
2023-04-15T08:44:55.785Z,13.00
2023-04-15T08:47:27.444Z,13.35
2023-04-15T08:49:55.666Z,13.59
2023-04-15T08:52:23.102Z,13.44
2023-04-15T08:54:49.835Z,12.68
2023-04-15T08:57:16.618Z,12.97
2023-04-15T08:59:44.019Z,12.79
2023-04-15T09:02:12.317Z,13.23
2023-04-15T09:04:38.897Z,13.61
2023-04-15T09:07:06.313Z,12.84
2023-04-15T09:09:33.227Z,13.61
2023-04-15T09:12:02.053Z,13.81
2023-04-15T09:14:32.325Z,13.90
2023-04-15T09:17:04.057Z,13.86
2023-04-15T09:19:31.696Z,14.22
2023-04-15T09:21:59.710Z,14.28
2023-04-15T09:24:37.585Z,13.47
2023-04-15T09:27:04.555Z,14.45
2023-04-15T09:29:31.750Z,14.62
2023-04-15T09:32:10.937Z,14.76
2023-04-15T09:34:38.159Z,14.98
2023-04-15T09:37:04.844Z,15.46
2023-04-15T09:39:48.846Z,15.70
2023-04-15T09:42:17.703Z,15.34
2023-04-15T09:44:44.553Z,14.96
2023-04-15T09:47:27.887Z,15.84
2023-04-15T09:50:01.985Z,16.29
2023-04-15T09:52:29.902Z,16.58
2023-04-15T09:55:00.413Z,16.70
2023-04-15T09:57:35.886Z,17.36
2023-04-15T10:00:09.051Z,17.55
2023-04-15T10:02:36.889Z,16.78
2023-04-15T10:05:04.095Z,17.32
2023-04-15T10:07:31.038Z,17.87
2023-04-15T10:10:00.006Z,17.61
2023-04-15T10:12:27.990Z,17.73
2023-04-15T10:15:04.961Z,17.37
2023-04-15T10:17:35.531Z,17.80
2023-04-15T10:20:04.978Z,17.68
2023-04-15T10:22:32.828Z,18.06
2023-04-15T10:25:01.061Z,18.31
2023-04-15T10:27:28.114Z,18.16
2023-04-15T10:29:55.019Z,18.60
2023-04-15T10:32:22.785Z,18.68
2023-04-15T10:34:52.392Z,18.55
2023-04-15T10:37:22.123Z,18.71
2023-04-15T10:39:48.843Z,18.94
2023-04-15T10:42:17.636Z,19.70
2023-04-15T10:44:54.525Z,19.83
2023-04-15T10:47:22.282Z,19.46
2023-04-15T10:49:58.239Z,20.58
2023-04-15T10:52:27.768Z,21.79
2023-04-15T10:55:14.632Z,22.42
2023-04-15T10:57:42.508Z,22.89
2023-04-15T11:00:09.281Z,24.36
2023-04-15T11:02:43.574Z,25.04
2023-04-15T11:05:11.886Z,23.41
2023-04-15T11:07:44.449Z,21.97
2023-04-15T11:10:14.010Z,20.99
2023-04-15T11:12:41.456Z,20.51
2023-04-15T11:15:39.034Z,20.64
2023-04-15T11:18:19.809Z,20.81
2023-04-15T11:21:00.197Z,22.28
2023-04-15T11:23:36.126Z,21.19
2023-04-15T11:26:07.033Z,20.16
2023-04-15T11:28:33.681Z,20.02
2023-04-15T11:31:07.368Z,19.82
2023-04-15T11:33:33.987Z,19.75
2023-04-15T11:36:01.601Z,18.70
2023-04-15T11:38:28.261Z,18.74
2023-04-15T11:40:55.027Z,18.33
2023-04-15T11:43:23.364Z,18.12
2023-04-15T11:45:57.511Z,18.14
2023-04-15T11:48:27.151Z,18.65
2023-04-15T11:50:59.310Z,19.40
2023-04-15T11:53:37.512Z,20.39
2023-04-15T11:56:04.298Z,20.47
2023-04-15T11:58:31.822Z,19.07
2023-04-15T12:01:00.314Z,19.49
2023-04-15T12:03:32.206Z,19.26
2023-04-15T12:06:15.164Z,19.12
2023-04-15T12:09:15.484Z,19.56
2023-04-15T12:11:47.583Z,19.25
2023-04-15T12:14:31.386Z,18.82
2023-04-15T12:17:05.556Z,18.41
2023-04-15T12:19:36.924Z,17.99
2023-04-15T12:22:11.991Z,18.14
2023-04-15T12:24:39.649Z,17.96
2023-04-15T12:27:11.928Z,17.71
2023-04-15T12:29:40.995Z,17.78
2023-04-15T12:32:12.417Z,17.52
2023-04-15T12:34:40.529Z,17.47
2023-04-15T12:37:11.850Z,17.39
2023-04-15T12:39:41.315Z,17.80
2023-04-15T12:42:09.105Z,17.75
2023-04-15T12:44:37.170Z,17.96
2023-04-15T12:47:04.236Z,18.31
2023-04-15T12:49:32.773Z,18.46
2023-04-15T12:52:00.972Z,18.29
2023-04-15T12:54:28.710Z,18.14
2023-04-15T12:56:55.999Z,17.82
2023-04-15T12:59:24.288Z,17.91
2023-04-15T13:01:52.530Z,18.06
2023-04-15T13:04:20.901Z,18.84
2023-04-15T13:06:47.924Z,19.05
2023-04-15T13:09:15.012Z,18.75
2023-04-15T13:11:41.993Z,18.56
2023-04-15T13:14:09.836Z,18.55
2023-04-15T13:16:36.577Z,18.67
2023-04-15T13:19:04.154Z,18.71
2023-04-15T13:21:36.108Z,19.05
2023-04-15T13:24:04.017Z,18.96
2023-04-15T13:26:31.941Z,18.63
2023-04-15T13:28:58.795Z,18.79
2023-04-15T13:31:25.683Z,18.75
2023-04-15T13:33:52.389Z,18.80
2023-04-15T13:36:19.469Z,18.83
2023-04-15T13:38:46.199Z,18.00
2023-04-15T13:41:13.482Z,18.55
2023-04-15T13:43:40.907Z,19.85
2023-04-15T13:46:07.514Z,20.74
2023-04-15T13:48:34.098Z,21.35
2023-04-15T13:51:00.904Z,21.11
2023-04-15T13:53:37.759Z,20.90
2023-04-15T13:56:10.058Z,22.42
2023-04-15T13:58:37.775Z,24.47
2023-04-15T14:01:07.090Z,26.44
2023-04-15T14:03:35.480Z,25.29
2023-04-15T14:06:02.389Z,24.89
2023-04-15T14:08:30.337Z,25.61
2023-04-15T14:10:57.906Z,26.95
2023-04-15T14:13:24.792Z,27.24
2023-04-15T14:15:51.461Z,27.22
2023-04-15T14:18:18.051Z,27.40
2023-04-15T14:20:49.907Z,28.16
2023-04-15T14:23:16.458Z,29.45
2023-04-15T14:25:43.610Z,28.81
2023-04-15T14:28:11.214Z,30.50
2023-04-15T14:30:37.897Z,30.27
2023-04-15T14:33:04.562Z,30.87
2023-04-15T14:35:31.549Z,32.02
2023-04-15T14:37:58.243Z,30.47
2023-04-15T14:40:25.019Z,30.91
2023-04-15T14:42:51.676Z,31.51
2023-04-15T14:45:18.549Z,31.89
2023-04-15T14:47:45.270Z,30.71
2023-04-15T14:50:12.183Z,30.43
2023-04-15T14:52:39.070Z,28.61
2023-04-15T14:55:07.399Z,26.67
2023-04-15T14:57:34.018Z,25.76
2023-04-15T15:00:00.776Z,26.26
2023-04-15T15:02:38.481Z,27.29
2023-04-15T15:05:07.215Z,26.71
2023-04-15T15:07:34.143Z,25.58
2023-04-15T15:10:00.996Z,25.03
2023-04-15T15:12:27.603Z,25.32
2023-04-15T15:14:55.961Z,25.08
2023-04-15T15:17:22.656Z,23.98
2023-04-15T15:19:49.504Z,23.12
2023-04-15T15:22:16.116Z,22.89
2023-04-15T15:24:42.715Z,23.45
2023-04-15T15:27:09.755Z,23.63
2023-04-15T15:29:38.472Z,21.92
2023-04-15T15:32:05.701Z,23.47
2023-04-15T15:34:32.329Z,23.82
2023-04-15T15:37:00.974Z,22.80
2023-04-15T15:39:27.905Z,21.63
2023-04-15T15:41:54.609Z,20.64
2023-04-15T15:44:21.257Z,19.91
2023-04-15T15:46:47.982Z,19.61
2023-04-15T15:49:14.739Z,19.74
2023-04-15T15:51:41.412Z,19.85
2023-04-15T15:54:08.003Z,19.47
2023-04-15T15:56:35.250Z,19.43
2023-04-15T15:59:01.926Z,18.92
2023-04-15T16:01:28.685Z,18.16
2023-04-15T16:03:55.544Z,17.84
2023-04-15T16:06:22.216Z,17.54
2023-04-15T16:08:48.846Z,17.73
2023-04-15T16:11:15.626Z,17.71
2023-04-15T16:13:42.245Z,17.57
2023-04-15T16:16:08.894Z,17.42
2023-04-15T16:18:35.630Z,17.33
2023-04-15T16:21:02.376Z,16.52
2023-04-15T16:23:29.121Z,16.83
2023-04-15T16:25:56.035Z,16.66
2023-04-15T16:28:26.764Z,16.80
2023-04-15T16:30:54.522Z,16.65
2023-04-15T16:33:21.317Z,16.82
2023-04-15T16:35:47.992Z,16.39
2023-04-15T16:38:14.628Z,16.54
2023-04-15T16:40:41.479Z,16.30
2023-04-15T16:43:11.294Z,16.48
2023-04-15T16:45:38.132Z,16.17
2023-04-15T16:48:05.017Z,16.03
2023-04-15T16:50:31.877Z,16.44
2023-04-15T16:52:58.455Z,16.43
2023-04-15T16:55:25.121Z,16.38
2023-04-15T16:58:02.103Z,16.41
2023-04-15T17:00:31.354Z,16.11
2023-04-15T17:02:58.875Z,16.03
2023-04-15T17:05:27.776Z,15.21
2023-04-15T17:07:54.958Z,15.38
2023-04-15T17:10:22.172Z,15.40
2023-04-15T17:12:52.431Z,15.32
2023-04-15T17:15:20.061Z,15.45
2023-04-15T17:17:46.871Z,15.59
2023-04-15T17:20:13.599Z,15.50
2023-04-15T17:22:40.446Z,15.24
2023-04-15T17:25:09.182Z,15.32
2023-04-15T17:27:35.871Z,15.07
2023-04-15T17:30:02.542Z,14.88
2023-04-15T17:32:32.110Z,14.89
2023-04-15T17:34:58.782Z,15.04
2023-04-15T17:37:25.804Z,15.17
2023-04-15T17:39:52.696Z,15.25
2023-04-15T17:42:19.445Z,15.22
2023-04-15T17:44:46.162Z,15.07
2023-04-15T17:47:12.861Z,15.07
2023-04-15T17:49:39.440Z,15.01
2023-04-15T17:52:06.466Z,15.07
2023-04-15T17:54:33.120Z,15.00
2023-04-15T17:57:00.389Z,14.84
2023-04-15T17:59:27.732Z,14.86
2023-04-15T18:01:54.385Z,14.41
2023-04-15T18:04:22.097Z,14.67
2023-04-15T18:06:51.876Z,14.69
2023-04-15T18:09:18.581Z,14.60
2023-04-15T18:11:47.457Z,14.59
2023-04-15T18:14:17.724Z,14.24
2023-04-15T18:16:53.545Z,14.32
2023-04-15T18:19:21.849Z,14.29
2023-04-15T18:21:48.393Z,13.93
2023-04-15T18:24:16.212Z,14.03
2023-04-15T18:26:43.263Z,14.16
2023-04-15T18:29:10.858Z,14.09
2023-04-15T18:31:37.433Z,14.09
2023-04-15T18:34:06.602Z,13.96
2023-04-15T18:36:33.449Z,13.91
2023-04-15T18:39:00.120Z,13.86
2023-04-15T18:41:26.737Z,13.91
2023-04-15T18:43:54.792Z,13.74
2023-04-15T18:46:21.470Z,13.46
2023-04-15T18:48:48.154Z,13.63
2023-04-15T18:51:15.541Z,13.41
2023-04-15T18:53:42.195Z,13.35
2023-04-15T18:56:08.769Z,13.45
2023-04-15T18:59:10.157Z,13.29
2023-04-15T19:01:22.195Z,13.17
2023-04-15T19:03:48.836Z,13.05
2023-04-15T19:06:15.574Z,12.94
2023-04-15T19:08:42.487Z,12.78
2023-04-15T19:11:09.085Z,13.03
2023-04-15T19:13:35.753Z,13.04
2023-04-15T19:16:02.370Z,12.65
2023-04-15T19:18:29.013Z,12.85
2023-04-15T19:20:56.797Z,12.43
2023-04-15T19:23:24.005Z,12.61
2023-04-15T19:25:50.819Z,12.84
2023-04-15T19:28:17.386Z,12.72
2023-04-15T19:30:44.071Z,12.72
2023-04-15T19:33:10.678Z,12.66
2023-04-15T19:35:38.442Z,12.74
2023-04-15T19:38:05.379Z,12.88
2023-04-15T19:40:32.025Z,12.80
2023-04-15T19:42:58.644Z,12.43
2023-04-15T19:45:25.405Z,12.58
2023-04-15T19:47:53.581Z,12.61
2023-04-15T19:50:24.816Z,12.72
2023-04-15T19:52:51.495Z,12.30
2023-04-15T19:55:18.349Z,12.73
2023-04-15T19:57:44.936Z,12.60
2023-04-15T20:00:12.091Z,12.56
2023-04-15T20:02:38.866Z,12.48
2023-04-15T20:05:10.012Z,12.57
2023-04-15T20:07:36.767Z,12.69
2023-04-15T20:10:12.088Z,12.64
2023-04-15T20:12:51.625Z,12.72
2023-04-15T20:15:20.256Z,12.50
2023-04-15T20:17:46.890Z,12.63
2023-04-15T20:20:13.569Z,12.70
2023-04-15T20:22:40.325Z,12.71
2023-04-15T20:25:07.508Z,12.71
2023-04-15T20:27:34.092Z,12.59
2023-04-15T20:30:00.712Z,12.54
2023-04-15T20:32:28.489Z,12.32
2023-04-15T20:34:55.303Z,12.61
2023-04-15T20:37:22.539Z,12.56
2023-04-15T20:39:49.439Z,12.50
2023-04-15T20:42:16.391Z,12.29
2023-04-15T20:44:42.976Z,12.14
2023-04-15T20:47:09.652Z,12.44
2023-04-15T20:49:38.020Z,12.34
2023-04-15T20:52:06.629Z,12.24
2023-04-15T20:54:33.647Z,12.36
2023-04-15T20:57:01.664Z,12.32
2023-04-15T20:59:28.382Z,12.25
2023-04-15T21:01:57.122Z,12.33
2023-04-15T21:04:25.197Z,12.03
2023-04-15T21:06:55.075Z,12.17
2023-04-15T21:09:21.929Z,11.90
2023-04-15T21:14:19.044Z,12.07
2023-04-15T21:16:45.839Z,11.66
2023-04-15T21:19:12.659Z,11.44
2023-04-15T21:21:39.384Z,11.72
2023-04-15T21:24:07.877Z,11.66
2023-04-15T21:26:36.310Z,11.52
2023-04-15T21:29:03.582Z,11.64
2023-04-15T21:31:30.661Z,11.69
2023-04-15T21:33:57.343Z,11.61
2023-04-15T21:36:23.954Z,11.63
2023-04-15T21:38:50.586Z,11.53
2023-04-15T21:41:17.191Z,11.25
2023-04-15T21:43:43.787Z,11.53
2023-04-15T21:46:23.033Z,11.63
2023-04-15T21:48:53.591Z,11.58
2023-04-15T21:51:21.638Z,11.71
2023-04-15T21:53:48.502Z,11.40
2023-04-15T21:56:15.099Z,11.54
2023-04-15T21:58:41.832Z,11.46
2023-04-15T22:01:08.520Z,10.41
2023-04-15T22:03:35.692Z,11.36
2023-04-15T22:06:03.222Z,11.53
2023-04-15T22:08:33.632Z,11.35
2023-04-15T22:11:05.188Z,11.42
2023-04-15T22:13:31.742Z,11.44
2023-04-15T22:15:58.380Z,11.28
2023-04-15T22:18:25.009Z,11.43
2023-04-15T22:20:51.768Z,11.48
2023-04-15T22:23:20.543Z,11.16
2023-04-15T22:25:48.792Z,11.01
2023-04-15T22:28:15.459Z,11.42
2023-04-15T22:30:42.632Z,11.39
2023-04-15T22:33:09.997Z,11.29
2023-04-15T22:35:37.545Z,11.51
2023-04-15T22:38:05.220Z,11.48
2023-04-15T22:40:31.811Z,11.37
2023-04-15T22:42:58.575Z,11.29
2023-04-15T22:45:25.182Z,11.36
2023-04-15T22:47:51.762Z,10.98
2023-04-15T22:50:18.581Z,11.02
2023-04-15T22:52:48.410Z,11.21
2023-04-15T22:55:15.592Z,10.87
2023-04-15T22:57:42.117Z,11.13
2023-04-15T23:00:09.499Z,11.04
2023-04-15T23:02:36.196Z,10.92
2023-04-15T23:05:12.069Z,10.65
2023-04-15T23:07:40.301Z,10.68
2023-04-15T23:10:08.168Z,10.87
2023-04-15T23:12:34.801Z,10.55
2023-04-15T23:15:01.497Z,10.90
2023-04-15T23:17:28.159Z,10.92
2023-04-15T23:19:54.830Z,10.53
2023-04-15T23:22:21.418Z,10.58
2023-04-15T23:24:47.987Z,10.94
2023-04-15T23:27:14.614Z,10.95
2023-04-15T23:29:41.214Z,10.62
2023-04-15T23:32:07.856Z,11.00
2023-04-15T23:34:34.413Z,10.59
2023-04-15T23:37:01.134Z,10.91
2023-04-15T23:39:27.791Z,10.78
2023-04-15T23:41:54.407Z,10.59
2023-04-15T23:44:20.989Z,10.67
2023-04-15T23:46:47.593Z,10.62
2023-04-15T23:49:14.379Z,10.42
2023-04-15T23:51:41.414Z,10.55
2023-04-15T23:54:07.965Z,10.23
2023-04-15T23:56:34.531Z,10.25
2023-04-15T23:59:01.154Z,9.88
